Time;durP1;ratioP1;P1;durP2;ratioP2;P2;SDS_P1;SDS_P2;PMS_P1;PMS_P2;Temp;Humidity;BMP_temperature;BMP_pressure;BME280_temperature;BME280_humidity;BME280_pressure;Samples;Min_cycle;Max_cycle;Signal;HPM_P1;HPM_P2
2021/08/17 00:00:00;;;;;;;1.50;0.83;;;;;;;;;;4540923;28;34095;-60
2021/08/17 00:02:10;;;;;;;3.07;1.07;;;;;;;;;;4540094;28;20037;-60
2021/08/17 00:04:20;;;;;;;2.57;1.00;;;;;;;;;;4542665;28;20037;-60
2021/08/17 00:06:31;;;;;;;2.97;1.10;;;;;;;;;;4540838;28;20040;-60
2021/08/17 00:08:44;;;;;;;2.37;0.90;;;;;;;;;;4540301;28;20032;-60
2021/08/17 00:10:55;;;;;;;1.85;0.85;;;;;;;;;;4539631;28;20556;-60
2021/08/17 00:13:06;;;;;;;2.47;0.90;;;;;;;;;;4542227;28;20361;-59
2021/08/17 00:15:16;;;;;;;2.73;0.87;;;;;;;;;;4540002;28;20303;-59
2021/08/17 00:17:27;;;;;;;3.53;1.27;;;;;;;;;;4539738;28;20441;-59
2021/08/17 00:19:40;;;;;;;2.20;1.00;;;;;;;;;;4542151;28;20075;-59
2021/08/17 00:21:50;;;;;;;2.40;1.00;;;;;;;;;;4541623;28;20033;-59
2021/08/17 00:24:00;;;;;;;3.60;1.00;;;;;;;;;;4540325;28;29671;-60
2021/08/17 00:26:11;;;;;;;3.63;1.20;;;;;;;;;;4539670;28;41306;-60
2021/08/17 00:28:21;;;;;;;3.60;0.97;;;;;;;;;;4541547;28;20037;-60
2021/08/17 00:30:32;;;;;;;4.40;1.00;;;;;;;;;;4543567;28;20424;-60
2021/08/17 00:32:42;;;;;;;3.03;1.00;;;;;;;;;;4541692;28;20037;-60
2021/08/17 00:34:53;;;;;;;3.10;1.10;;;;;;;;;;4543020;28;20036;-60
2021/08/17 00:37:03;;;;;;;3.57;1.40;;;;;;;;;;4540161;28;20036;-60
2021/08/17 00:39:13;;;;;;;2.67;0.97;;;;;;;;;;4540932;28;31573;-60
2021/08/17 00:41:24;;;;;;;4.07;1.00;;;;;;;;;;4542107;28;20435;-60
2021/08/17 00:43:36;;;;;;;3.13;0.93;;;;;;;;;;4543515;28;20036;-60
2021/08/17 00:45:47;;;;;;;2.47;1.10;;;;;;;;;;4541345;28;20086;-60
2021/08/17 00:47:58;;;;;;;1.87;0.90;;;;;;;;;;4541512;28;20677;-60
2021/08/17 00:50:08;;;;;;;;;;;;;;;;;;4542997;28;20592;-60
2021/08/17 00:52:19;;;;;;;3.47;1.08;;;;;;;;;;4540436;28;19920;-60
2021/08/17 00:54:30;;;;;;;2.17;1.00;;;;;;;;;;4527251;28;20105;-60
2021/08/17 00:56:41;;;;;;;2.77;1.07;;;;;;;;;;4541211;28;20032;-60
2021/08/17 00:58:51;;;;;;;1.33;0.75;;;;;;;;;;4540179;28;28484;-60
2021/08/17 01:01:02;;;;;;;2.10;0.80;;;;;;;;;;4541106;28;20503;-60
2021/08/17 01:03:13;;;;;;;3.65;1.20;;;;;;;;;;4540612;28;20041;-60
2021/08/17 01:05:28;;;;;;;2.93;0.83;;;;;;;;;;4539048;28;20094;-60
2021/08/17 01:07:38;;;;;;;2.22;0.80;;;;;;;;;;4539851;28;20801;-60
2021/08/17 01:09:49;;;;;;;4.15;0.98;;;;;;;;;;4538199;28;20033;-60
2021/08/17 01:12:01;;;;;;;3.43;1.20;;;;;;;;;;4540213;28;20045;-60
2021/08/17 01:14:13;;;;;;;3.70;1.15;;;;;;;;;;4527075;28;20057;-59
2021/08/17 01:16:23;;;;;;;2.90;1.10;;;;;;;;;;4539838;28;20127;-60
2021/08/17 01:18:34;;;;;;;1.80;0.90;;;;;;;;;;4539717;28;20021;-60
2021/08/17 01:20:48;;;;;;;2.57;0.97;;;;;;;;;;4541717;28;20041;-60
2021/08/17 01:22:58;;;;;;;2.10;1.00;;;;;;;;;;4540870;28;20120;-60
2021/08/17 01:25:10;;;;;;;2.83;1.00;;;;;;;;;;4507241;28;31746;-60
2021/08/17 01:27:20;;;;;;;2.67;1.08;;;;;;;;;;4538775;28;20033;-60
2021/08/17 01:29:31;;;;;;;2.43;1.10;;;;;;;;;;4538537;28;20405;-60
2021/08/17 01:31:41;;;;;;;2.53;1.17;;;;;;;;;;4540080;28;20095;-60
2021/08/17 01:33:52;;;;;;;3.63;1.10;;;;;;;;;;4543160;28;20052;-60
2021/08/17 01:36:03;;;;;;;1.43;0.77;;;;;;;;;;4540962;28;20025;-60
2021/08/17 01:38:13;;;;;;;2.80;1.10;;;;;;;;;;4543698;28;20032;-59
2021/08/17 01:40:24;;;;;;;3.37;1.03;;;;;;;;;;4538666;28;20040;-60
2021/08/17 01:42:36;;;;;;;2.40;0.80;;;;;;;;;;4541223;28;20043;-60
2021/08/17 01:44:46;;;;;;;3.45;1.00;;;;;;;;;;4539117;28;20064;-60
2021/08/17 01:46:57;;;;;;;2.07;0.90;;;;;;;;;;4540482;28;23487;-60
2021/08/17 01:49:07;;;;;;;3.30;1.10;;;;;;;;;;4541811;28;20032;-60
2021/08/17 01:51:18;;;;;;;3.80;1.07;;;;;;;;;;4542012;28;20146;-60
2021/08/17 01:53:30;;;;;;;2.93;1.00;;;;;;;;;;4541647;28;20568;-60
2021/08/17 01:55:40;;;;;;;2.45;0.90;;;;;;;;;;4537251;28;20405;-60
2021/08/17 01:57:51;;;;;;;2.37;1.10;;;;;;;;;;4539645;28;20082;-61
2021/08/17 02:00:03;;;;;;;2.70;1.00;;;;;;;;;;4537534;28;20029;-60
2021/08/17 02:02:15;;;;;;;2.45;0.80;;;;;;;;;;4539433;28;20644;-60
2021/08/17 02:04:28;;;;;;;3.10;1.20;;;;;;;;;;4538044;28;20562;-60
2021/08/17 02:06:38;;;;;;;3.92;1.38;;;;;;;;;;4540437;28;20500;-60
2021/08/17 02:08:49;;;;;;;3.57;1.20;;;;;;;;;;4539652;28;20036;-61
2021/08/17 02:10:59;;;;;;;2.47;1.00;;;;;;;;;;4538233;28;20492;-60
2021/08/17 02:13:09;;;;;;;3.37;1.17;;;;;;;;;;4539732;28;25441;-60
2021/08/17 02:15:20;;;;;;;3.17;1.10;;;;;;;;;;4523928;28;20080;-60
2021/08/17 02:17:30;;;;;;;3.43;1.00;;;;;;;;;;4540784;28;20458;-60
2021/08/17 02:19:41;;;;;;;2.47;1.00;;;;;;;;;;4539214;28;20032;-60
2021/08/17 02:21:51;;;;;;;3.10;1.20;;;;;;;;;;4536753;28;20091;-60
2021/08/17 02:24:02;;;;;;;2.53;1.10;;;;;;;;;;4539520;28;20111;-61
2021/08/17 02:26:12;;;;;;;3.03;1.00;;;;;;;;;;4537883;28;20037;-60
2021/08/17 02:28:22;;;;;;;2.53;1.20;;;;;;;;;;4537496;28;30245;-60
2021/08/17 02:30:33;;;;;;;2.70;1.03;;;;;;;;;;4538980;28;28797;-60
2021/08/17 02:32:43;;;;;;;3.03;1.30;;;;;;;;;;4541222;28;20048;-60
2021/08/17 02:34:54;;;;;;;3.53;1.00;;;;;;;;;;4541050;28;20049;-60
2021/08/17 02:37:04;;;;;;;2.63;1.00;;;;;;;;;;4537841;28;20028;-60
2021/08/17 02:39:15;;;;;;;3.37;1.00;;;;;;;;;;4540812;28;20103;-61
2021/08/17 02:41:25;;;;;;;2.33;1.20;;;;;;;;;;4540409;28;24824;-60
2021/08/17 02:43:36;;;;;;;3.00;1.30;;;;;;;;;;4536798;28;20049;-60
2021/08/17 02:45:46;;;;;;;4.20;1.33;;;;;;;;;;4537475;28;20055;-60
2021/08/17 02:47:58;;;;;;;2.30;0.97;;;;;;;;;;4539457;28;20127;-61
2021/08/17 02:50:09;;;;;;;3.20;1.05;;;;;;;;;;4539108;28;20033;-60
2021/08/17 02:52:19;;;;;;;2.58;1.00;;;;;;;;;;4542241;28;20041;-60
2021/08/17 02:54:35;;;;;;;2.67;1.38;;;;;;;;;;4515367;28;20505;-60
2021/08/17 02:56:45;;;;;;;2.58;0.95;;;;;;;;;;4540984;28;20039;-60
2021/08/17 02:58:55;;;;;;;3.33;1.10;;;;;;;;;;4541761;28;20039;-60
2021/08/17 03:01:06;;;;;;;2.70;1.20;;;;;;;;;;4543008;28;24282;-60
2021/08/17 03:03:17;;;;;;;2.90;1.30;;;;;;;;;;4542429;28;20033;-60
2021/08/17 03:05:28;;;;;;;3.50;1.25;;;;;;;;;;4541440;28;20043;-60
2021/08/17 03:07:54;;;;;;;4.40;1.30;;;;;;;;;;4542096;28;31187;-60
2021/08/17 03:10:05;;;;;;;4.07;1.30;;;;;;;;;;4542358;28;20131;-60
2021/08/17 03:12:15;;;;;;;1.77;1.20;;;;;;;;;;4517337;28;20046;-60
2021/08/17 03:14:26;;;;;;;3.10;1.57;;;;;;;;;;4545296;28;22698;-60
2021/08/17 03:16:36;;;;;;;4.43;1.30;;;;;;;;;;4538217;28;20087;-61
2021/08/17 03:18:46;;;;;;;3.90;1.30;;;;;;;;;;4543445;28;20031;-60
2021/08/17 03:20:58;;;;;;;4.73;1.37;;;;;;;;;;4541114;28;20043;-60
2021/08/17 03:23:13;;;;;;;2.78;1.13;;;;;;;;;;4541286;28;20032;-60
2021/08/17 03:25:26;;;;;;;3.30;1.40;;;;;;;;;;4543372;28;20033;-60
2021/08/17 03:27:36;;;;;;;2.67;1.40;;;;;;;;;;4540562;28;20021;-61
2021/08/17 03:29:47;;;;;;;1.90;1.17;;;;;;;;;;4542912;28;20037;-60
2021/08/17 03:31:57;;;;;;;2.30;1.20;;;;;;;;;;4543464;28;20064;-61
2021/08/17 03:34:08;;;;;;;3.23;1.40;;;;;;;;;;4542074;28;20087;-61
2021/08/17 03:36:18;;;;;;;2.60;1.20;;;;;;;;;;4541605;28;20122;-60
2021/08/17 03:38:29;;;;;;;3.13;1.33;;;;;;;;;;4544147;28;20304;-61
2021/08/17 03:40:40;;;;;;;4.70;1.77;;;;;;;;;;4541169;28;27104;-60
2021/08/17 03:42:50;;;;;;;2.67;1.30;;;;;;;;;;4544158;28;20037;-60
2021/08/17 03:45:01;;;;;;;4.17;1.50;;;;;;;;;;4537706;28;20040;-61
2021/08/17 03:47:11;;;;;;;3.97;1.60;;;;;;;;;;4541517;28;20040;-60
2021/08/17 03:49:21;;;;;;;3.87;1.20;;;;;;;;;;4529815;28;20408;-60
2021/08/17 03:51:32;;;;;;;3.03;1.30;;;;;;;;;;4542150;28;20080;-61
2021/08/17 03:53:42;;;;;;;4.20;1.47;;;;;;;;;;4539150;28;28914;-60
2021/08/17 03:55:53;;;;;;;2.63;1.20;;;;;;;;;;4540303;28;20360;-60
2021/08/17 03:58:04;;;;;;;4.25;1.60;;;;;;;;;;4541957;28;20121;-60
2021/08/17 04:00:17;;;;;;;3.73;1.60;;;;;;;;;;4541757;28;20126;-60
2021/08/17 04:02:28;;;;;;;4.07;1.50;;;;;;;;;;4542846;28;20158;-60
2021/08/17 04:04:38;;;;;;;4.60;1.60;;;;;;;;;;4540076;28;20157;-60
2021/08/17 04:06:48;;;;;;;3.67;1.47;;;;;;;;;;4542737;28;20401;-60
2021/08/17 04:08:59;;;;;;;3.20;1.53;;;;;;;;;;4543562;28;20028;-60
2021/08/17 04:11:09;;;;;;;3.30;1.50;;;;;;;;;;4540379;28;20413;-60
2021/08/17 04:13:20;;;;;;;3.47;1.50;;;;;;;;;;4540285;28;22654;-60
2021/08/17 04:15:31;;;;;;;3.13;1.23;;;;;;;;;;4542093;28;20086;-60
2021/08/17 04:17:41;;;;;;;4.35;1.67;;;;;;;;;;4542156;28;20033;-60
2021/08/17 04:19:51;;;;;;;3.23;1.20;;;;;;;;;;4543740;28;20060;-60
2021/08/17 04:22:02;;;;;;;4.40;1.53;;;;;;;;;;4540994;28;20409;-60
2021/08/17 04:24:12;;;;;;;4.37;1.60;;;;;;;;;;4541973;28;20037;-60
2021/08/17 04:26:23;;;;;;;2.80;1.20;;;;;;;;;;4541191;28;20040;-61
2021/08/17 04:28:33;;;;;;;2.53;1.33;;;;;;;;;;4541937;28;20035;-60
2021/08/17 04:30:44;;;;;;;3.23;1.43;;;;;;;;;;4539474;28;20283;-60
2021/08/17 04:32:55;;;;;;;3.03;1.50;;;;;;;;;;4537545;28;20033;-60
2021/08/17 04:35:06;;;;;;;4.70;1.87;;;;;;;;;;4540928;28;20041;-60
2021/08/17 04:37:16;;;;;;;3.70;1.40;;;;;;;;;;4541037;28;21465;-61
2021/08/17 04:39:27;;;;;;;3.63;1.60;;;;;;;;;;4540058;28;28073;-60
2021/08/17 04:41:37;;;;;;;4.77;1.53;;;;;;;;;;4542839;28;20124;-61
2021/08/17 04:43:47;;;;;;;3.87;1.60;;;;;;;;;;4542468;28;20041;-60
2021/08/17 04:45:58;;;;;;;2.93;1.43;;;;;;;;;;4522387;28;20036;-60
2021/08/17 04:48:08;;;;;;;3.73;1.70;;;;;;;;;;4539932;28;20097;-60
2021/08/17 04:50:20;;;;;;;3.37;1.70;;;;;;;;;;4539484;28;20056;-60
2021/08/17 04:52:31;;;;;;;4.13;1.85;;;;;;;;;;4541812;28;20114;-60
2021/08/17 04:54:41;;;;;;;3.70;1.97;;;;;;;;;;4540784;28;20045;-60
2021/08/17 04:56:52;;;;;;;4.50;1.70;;;;;;;;;;4541023;28;21434;-60
2021/08/17 04:59:02;;;;;;;3.50;1.83;;;;;;;;;;4541533;28;20104;-61
2021/08/17 05:01:13;;;;;;;4.27;1.70;;;;;;;;;;4540387;28;20036;-60
2021/08/17 05:03:23;;;;;;;4.10;2.37;;;;;;;;;;4541874;28;20069;-60
2021/08/17 05:05:33;;;;;;;4.47;2.23;;;;;;;;;;4527309;28;20108;-60
2021/08/17 05:07:44;;;;;;;5.70;2.33;;;;;;;;;;4539894;28;20029;-60
2021/08/17 05:09:54;;;;;;;4.03;2.30;;;;;;;;;;4540334;28;20081;-60
2021/08/17 05:12:05;;;;;;;6.33;2.50;;;;;;;;;;4540140;28;23111;-60
2021/08/17 05:14:15;;;;;;;5.03;2.55;;;;;;;;;;4540666;28;20048;-60
2021/08/17 05:16:26;;;;;;;4.50;2.60;;;;;;;;;;4539683;28;20107;-60
2021/08/17 05:18:36;;;;;;;6.00;2.80;;;;;;;;;;4540363;28;20501;-60
2021/08/17 05:20:47;;;;;;;4.87;2.50;;;;;;;;;;4540775;28;20054;-60
2021/08/17 05:22:58;;;;;;;4.87;2.87;;;;;;;;;;4539423;28;20064;-60
2021/08/17 05:25:08;;;;;;;5.30;2.90;;;;;;;;;;4524527;28;20037;-60
2021/08/17 05:27:19;;;;;;;6.78;3.10;;;;;;;;;;4539922;28;20313;-60
2021/08/17 05:29:29;;;;;;;5.60;2.90;;;;;;;;;;4539910;28;23648;-60
2021/08/17 05:31:40;;;;;;;6.63;3.30;;;;;;;;;;4539928;28;23475;-60
2021/08/17 05:33:50;;;;;;;6.30;3.00;;;;;;;;;;4539001;28;20120;-60
2021/08/17 05:36:01;;;;;;;5.80;3.27;;;;;;;;;;4540775;28;20068;-61
2021/08/17 05:38:11;;;;;;;5.27;3.27;;;;;;;;;;4539797;28;20033;-60
2021/08/17 05:40:21;;;;;;;5.63;3.20;;;;;;;;;;4539846;28;20037;-60
2021/08/17 05:42:32;;;;;;;7.33;3.37;;;;;;;;;;4538646;28;20087;-60
2021/08/17 05:44:44;;;;;;;5.30;3.10;;;;;;;;;;4539897;28;20472;-61
2021/08/17 05:46:55;;;;;;;5.43;3.05;;;;;;;;;;4537384;28;20153;-60
2021/08/17 05:49:05;;;;;;;7.17;3.23;;;;;;;;;;4541138;28;20068;-61
2021/08/17 05:51:16;;;;;;;6.07;3.10;;;;;;;;;;4539069;28;20033;-60
2021/08/17 05:53:26;;;;;;;6.03;3.50;;;;;;;;;;4539903;28;20087;-60
2021/08/17 05:55:37;;;;;;;6.60;3.90;;;;;;;;;;4525696;28;20100;-60
2021/08/17 05:57:55;;;;;;;6.57;3.63;;;;;;;;;;4540292;28;20040;-60
2021/08/17 06:00:09;;;;;;;7.20;3.65;;;;;;;;;;4538716;28;20028;-60
2021/08/17 06:02:23;;;;;;;7.45;3.90;;;;;;;;;;4542774;28;20500;-60
2021/08/17 06:04:33;;;;;;;5.77;3.30;;;;;;;;;;4541393;28;20063;-60
2021/08/17 06:06:44;;;;;;;7.30;3.90;;;;;;;;;;4540996;28;20121;-61
2021/08/17 06:08:54;;;;;;;6.77;3.70;;;;;;;;;;4524730;28;20037;-61
2021/08/17 06:11:04;;;;;;;6.07;3.40;;;;;;;;;;4539456;28;20048;-60
2021/08/17 06:13:15;;;;;;;6.87;4.00;;;;;;;;;;4540003;28;20405;-60
2021/08/17 06:15:25;;;;;;;7.93;3.97;;;;;;;;;;4539653;28;20044;-60
2021/08/17 06:17:36;;;;;;;6.83;3.70;;;;;;;;;;4539306;28;20092;-60
2021/08/17 06:19:47;;;;;;;6.37;3.57;;;;;;;;;;4540518;28;20708;-60
2021/08/17 06:21:57;;;;;;;7.57;3.47;;;;;;;;;;4539434;28;20585;-60
2021/08/17 06:24:07;;;;;;;7.63;3.90;;;;;;;;;;4539924;28;20049;-60
2021/08/17 06:26:18;;;;;;;7.77;3.80;;;;;;;;;;4542188;28;20041;-60
2021/08/17 06:28:29;;;;;;;5.83;3.40;;;;;;;;;;4542903;28;20051;-60
2021/08/17 06:30:40;;;;;;;7.20;3.63;;;;;;;;;;4543873;28;20037;-60
2021/08/17 06:32:51;;;;;;;5.43;3.20;;;;;;;;;;4540645;28;20079;-60
2021/08/17 06:35:01;;;;;;;6.60;3.57;;;;;;;;;;4542232;28;20123;-60
2021/08/17 06:37:12;;;;;;;7.13;3.10;;;;;;;;;;4543072;28;20037;-59
2021/08/17 06:39:22;;;;;;;5.63;3.20;;;;;;;;;;4544272;28;20044;-60
2021/08/17 06:41:33;;;;;;;6.10;3.07;;;;;;;;;;4543299;28;20091;-59
2021/08/17 06:43:44;;;;;;;6.97;3.50;;;;;;;;;;4541398;28;20033;-59
2021/08/17 06:45:55;;;;;;;5.23;3.00;;;;;;;;;;4543556;28;20033;-60
2021/08/17 06:48:06;;;;;;;5.45;2.92;;;;;;;;;;4543834;28;20658;-59
2021/08/17 06:50:17;;;;;;;6.17;3.07;;;;;;;;;;4544868;28;20648;-60
2021/08/17 06:52:27;;;;;;;5.68;2.83;;;;;;;;;;4527861;28;20151;-59
2021/08/17 06:54:38;;;;;;;6.73;3.27;;;;;;;;;;4544090;28;32489;-60
2021/08/17 06:56:48;;;;;;;5.83;2.93;;;;;;;;;;4542730;28;20033;-59
2021/08/17 06:58:58;;;;;;;4.47;2.70;;;;;;;;;;4543593;28;20169;-59
2021/08/17 07:01:09;;;;;;;7.27;3.23;;;;;;;;;;4541379;28;20067;-60
2021/08/17 07:03:19;;;;;;;6.57;3.57;;;;;;;;;;4542660;28;20028;-60
2021/08/17 07:05:30;;;;;;;5.63;2.90;;;;;;;;;;4542167;28;20037;-59
2021/08/17 07:07:40;;;;;;;6.37;3.13;;;;;;;;;;4544916;28;20028;-60
2021/08/17 07:09:51;;;;;;;6.30;3.40;;;;;;;;;;4541008;28;20064;-60
2021/08/17 07:12:01;;;;;;;6.43;3.07;;;;;;;;;;4540756;28;20524;-59
2021/08/17 07:14:12;;;;;;;6.43;3.30;;;;;;;;;;4541762;28;20040;-59
2021/08/17 07:16:22;;;;;;;6.73;3.23;;;;;;;;;;4543386;28;20025;-59
2021/08/17 07:18:34;;;;;;;6.80;3.47;;;;;;;;;;4542940;28;20040;-60
2021/08/17 07:20:45;;;;;;;6.82;3.53;;;;;;;;;;4541263;28;20033;-59
2021/08/17 07:22:55;;;;;;;6.00;3.57;;;;;;;;;;4538611;28;20037;-59
2021/08/17 07:25:06;;;;;;;7.47;3.93;;;;;;;;;;4539014;28;20064;-60
2021/08/17 07:27:17;;;;;;;5.88;3.33;;;;;;;;;;4539241;28;20033;-60
2021/08/17 07:29:27;;;;;;;7.73;3.60;;;;;;;;;;4540691;28;20036;-60
2021/08/17 07:31:38;;;;;;;6.70;3.80;;;;;;;;;;4542292;28;20115;-60
2021/08/17 07:33:48;;;;;;;7.83;3.77;;;;;;;;;;4539358;28;20044;-60
2021/08/17 07:35:59;;;;;;;6.33;3.20;;;;;;;;;;4542684;28;28552;-60
2021/08/17 07:38:09;;;;;;;6.30;3.50;;;;;;;;;;4540794;28;27413;-59
2021/08/17 07:40:20;;;;;;;6.63;3.70;;;;;;;;;;4538542;28;20134;-59
2021/08/17 07:42:31;;;;;;;5.68;3.05;;;;;;;;;;4543525;28;20115;-60
2021/08/17 07:44:42;;;;;;;6.45;3.45;;;;;;;;;;4540319;28;20036;-59
2021/08/17 07:46:52;;;;;;;5.87;3.47;;;;;;;;;;4525003;28;20042;-60
2021/08/17 07:49:02;;;;;;;6.07;3.23;;;;;;;;;;4541369;28;20339;-60
2021/08/17 07:51:13;;;;;;;7.30;3.63;;;;;;;;;;4539816;28;20532;-60
2021/08/17 07:53:24;;;;;;;6.33;3.53;;;;;;;;;;4541528;28;20464;-60
2021/08/17 07:55:34;;;;;;;6.63;3.70;;;;;;;;;;4539879;28;20583;-60
2021/08/17 07:57:45;;;;;;;7.23;3.67;;;;;;;;;;4541232;28;20091;-60
2021/08/17 07:59:57;;;;;;;6.00;3.30;;;;;;;;;;4540389;28;20043;-60
2021/08/17 08:02:07;;;;;;;6.28;3.50;;;;;;;;;;4539253;28;20065;-60
2021/08/17 08:04:17;;;;;;;6.47;3.60;;;;;;;;;;4537398;28;20112;-60
2021/08/17 08:06:28;;;;;;;7.00;3.80;;;;;;;;;;4541696;28;25400;-59
2021/08/17 08:08:41;;;;;;;6.90;3.57;;;;;;;;;;4523634;28;20044;-60
2021/08/17 08:10:51;;;;;;;7.05;3.72;;;;;;;;;;4540787;28;20028;-60
2021/08/17 08:13:02;;;;;;;7.17;4.00;;;;;;;;;;4541393;28;20041;-60
2021/08/17 08:15:13;;;;;;;6.90;3.90;;;;;;;;;;4541132;28;20047;-60
2021/08/17 08:17:23;;;;;;;7.30;3.93;;;;;;;;;;4543291;28;20059;-64
2021/08/17 08:19:35;;;;;;;6.53;3.80;;;;;;;;;;4543291;28;20037;-65
2021/08/17 08:21:46;;;;;;;6.85;4.28;;;;;;;;;;4542144;28;20030;-64
2021/08/17 08:23:56;;;;;;;6.30;3.77;;;;;;;;;;4542953;28;20037;-64
2021/08/17 08:26:07;;;;;;;8.80;4.53;;;;;;;;;;4540211;28;20079;-63
2021/08/17 08:28:18;;;;;;;7.77;4.33;;;;;;;;;;4543153;28;20048;-65
2021/08/17 08:30:28;;;;;;;7.30;4.20;;;;;;;;;;4542659;28;20051;-65
2021/08/17 08:32:39;;;;;;;7.73;4.53;;;;;;;;;;4540525;28;20831;-66
2021/08/17 08:34:49;;;;;;;8.27;4.00;;;;;;;;;;4542246;28;20060;-63
2021/08/17 08:37:00;;;;;;;7.47;4.10;;;;;;;;;;4539488;28;20038;-63
2021/08/17 08:39:10;;;;;;;7.27;3.80;;;;;;;;;;4542432;28;20040;-64
2021/08/17 08:41:21;;;;;;;6.03;4.03;;;;;;;;;;4541197;28;20777;-63
2021/08/17 08:43:31;;;;;;;9.00;4.45;;;;;;;;;;4542719;28;20032;-63
2021/08/17 08:45:43;;;;;;;6.37;4.10;;;;;;;;;;4537879;28;20053;-63
2021/08/17 08:47:53;;;;;;;7.57;3.83;;;;;;;;;;4538203;28;20119;-63
2021/08/17 08:50:04;;;;;;;7.97;4.20;;;;;;;;;;4540756;28;20021;-63
2021/08/17 08:52:16;;;;;;;6.97;4.15;;;;;;;;;;4539746;28;20124;-63
2021/08/17 08:54:26;;;;;;;;;;;;;;;;;;4539443;28;20029;-63
2021/08/17 08:56:37;;;;;;;7.57;4.22;;;;;;;;;;4543205;28;20388;-63
2021/08/17 08:58:47;;;;;;;7.17;4.60;;;;;;;;;;4542121;28;20549;-63
2021/08/17 09:00:58;;;;;;;7.70;4.47;;;;;;;;;;4542356;28;20036;-63
2021/08/17 09:03:09;;;;;;;7.87;4.90;;;;;;;;;;4541738;28;20100;-63
2021/08/17 09:05:22;;;;;;;;;;;;;;;;;;4540540;28;20553;-63
2021/08/17 09:07:36;;;;;;;7.88;4.88;;;;;;;;;;4540897;28;19922;-63
2021/08/17 09:09:59;;;;;;;7.35;4.47;;;;;;;;;;4541022;28;20047;-64
2021/08/17 09:12:10;;;;;;;8.25;4.78;;;;;;;;;;4538894;28;20051;-63
2021/08/17 09:14:21;;;;;;;7.83;4.50;;;;;;;;;;4539561;28;20043;-63
2021/08/17 09:16:32;;;;;;;7.38;4.30;;;;;;;;;;4538527;28;20091;-63
2021/08/17 09:18:42;;;;;;;7.57;4.60;;;;;;;;;;4540826;28;20095;-63
2021/08/17 09:20:53;;;;;;;8.63;4.97;;;;;;;;;;4540185;28;20037;-63
2021/08/17 09:23:24;;;;;;;7.47;4.77;;;;;;;;;;4540816;28;20034;-63
2021/08/17 09:25:35;;;;;;;8.23;4.82;;;;;;;;;;4539026;27;20040;-63
2021/08/17 09:27:45;;;;;;;8.67;5.13;;;;;;;;;;4541790;28;20041;-65
2021/08/17 09:30:06;;;;;;;8.07;4.90;;;;;;;;;;4540428;28;20124;-64
2021/08/17 09:32:21;;;;;;;7.32;4.47;;;;;;;;;;4543314;28;20040;-62
2021/08/17 09:34:34;;;;;;;7.93;4.88;;;;;;;;;;4539057;28;20037;-65
2021/08/17 09:36:46;;;;;;;7.57;4.80;;;;;;;;;;4540889;28;20025;-64
2021/08/17 09:38:56;;;;;;;7.75;4.53;;;;;;;;;;4541805;28;20032;-62
2021/08/17 09:41:21;;;;;;;9.37;5.17;;;;;;;;;;4541665;28;20103;-62
2021/08/17 09:43:32;;;;;;;7.95;4.55;;;;;;;;;;4541841;28;20107;-60
2021/08/17 09:45:43;;;;;;;7.77;4.90;;;;;;;;;;4540601;28;20526;-61
2021/08/17 09:47:56;;;;;;;7.95;4.78;;;;;;;;;;4541239;28;20043;-62
2021/08/17 09:50:22;;;;;;;8.40;5.32;;;;;;;;;;4536584;28;20037;-65
2021/08/17 09:52:34;;;;;;;8.63;5.40;;;;;;;;;;4539984;28;20649;-65
2021/08/17 09:54:47;;;;;;;7.65;5.30;;;;;;;;;;4524100;28;20037;-64
2021/08/17 09:57:00;;;;;;;8.30;5.10;;;;;;;;;;4537970;28;20083;-64
2021/08/17 09:59:19;;;;;;;9.25;5.50;;;;;;;;;;4538742;28;20033;-65
2021/08/17 10:01:29;;;;;;;8.85;5.07;;;;;;;;;;4539865;28;20481;-65
2021/08/17 10:03:40;;;;;;;8.73;5.40;;;;;;;;;;4523004;28;20198;-64
2021/08/17 10:05:51;;;;;;;8.02;5.45;;;;;;;;;;4541027;28;20553;-65
2021/08/17 10:08:02;;;;;;;7.53;5.30;;;;;;;;;;4555689;28;20036;-64
2021/08/17 10:10:13;;;;;;;8.88;5.47;;;;;;;;;;4537787;28;20808;-65
2021/08/17 10:12:24;;;;;;;6.80;5.28;;;;;;;;;;4539018;28;20092;-65
2021/08/17 10:14:35;;;;;;;8.33;5.70;;;;;;;;;;4541129;28;20119;-65
2021/08/17 10:16:46;;;;;;;8.75;5.95;;;;;;;;;;4542927;28;20706;-64
2021/08/17 10:18:56;;;;;;;8.30;5.80;;;;;;;;;;4539482;28;20678;-65
2021/08/17 10:21:07;;;;;;;8.65;5.55;;;;;;;;;;4542093;28;20152;-64
2021/08/17 10:23:19;;;;;;;8.67;5.30;;;;;;;;;;4540548;28;20931;-65
2021/08/17 10:25:51;;;;;;;9.63;5.80;;;;;;;;;;4541419;28;20033;-65
2021/08/17 10:28:23;;;;;;;8.05;5.30;;;;;;;;;;4530084;28;20034;-65
2021/08/17 10:30:35;;;;;;;8.20;5.65;;;;;;;;;;4540824;28;20591;-64
2021/08/17 10:32:58;;;;;;;9.55;5.60;;;;;;;;;;4540687;28;20126;-65
2021/08/17 10:35:27;;;;;;;8.73;5.60;;;;;;;;;;4539786;28;20797;-65
2021/08/17 10:37:37;;;;;;;9.10;5.75;;;;;;;;;;4538976;28;20029;-65
2021/08/17 10:39:48;;;;;;;11.03;5.77;;;;;;;;;;4538306;28;23184;-65
2021/08/17 10:42:19;;;;;;;8.90;5.70;;;;;;;;;;4539085;28;20856;-65
2021/08/17 10:44:33;;;;;;;8.75;5.70;;;;;;;;;;4539356;28;21003;-65
2021/08/17 10:46:47;;;;;;;10.80;6.32;;;;;;;;;;4538805;28;20071;-65
2021/08/17 10:48:59;;;;;;;8.90;6.00;;;;;;;;;;4539024;28;20529;-65
2021/08/17 10:51:30;;;;;;;8.88;5.97;;;;;;;;;;4537980;28;20412;-65
2021/08/17 10:53:40;;;;;;;9.48;6.55;;;;;;;;;;4526990;28;20119;-65
2021/08/17 10:55:51;;;;;;;9.20;6.10;;;;;;;;;;4537507;28;20920;-64
2021/08/17 10:58:09;;;;;;;9.73;5.90;;;;;;;;;;4538055;28;20068;-65
2021/08/17 11:00:45;;;;;;;9.73;5.88;;;;;;;;;;4538863;28;20033;-65
2021/08/17 11:02:56;;;;;;;9.45;6.45;;;;;;;;;;4540585;28;20091;-65
2021/08/17 11:05:06;;;;;;;9.20;6.18;;;;;;;;;;4539236;28;20031;-64
2021/08/17 11:07:35;;;;;;;9.37;5.90;;;;;;;;;;4539638;28;20088;-65
2021/08/17 11:09:46;;;;;;;8.70;5.88;;;;;;;;;;4539251;28;20071;-65
2021/08/17 11:12:08;;;;;;;9.30;6.30;;;;;;;;;;4536821;28;20047;-65
2021/08/17 11:14:20;;;;;;;8.80;6.22;;;;;;;;;;4537461;28;20045;-65
2021/08/17 11:16:32;;;;;;;9.05;6.00;;;;;;;;;;4540575;28;20080;-65
2021/08/17 11:18:57;;;;;;;10.02;6.22;;;;;;;;;;4542970;28;20032;-65
2021/08/17 11:21:07;;;;;;;9.05;5.70;;;;;;;;;;4545810;28;20051;-64
2021/08/17 11:23:18;;;;;;;9.57;6.10;;;;;;;;;;4543304;28;20368;-65
2021/08/17 11:25:29;;;;;;;8.77;5.70;;;;;;;;;;4542326;28;20506;-65
2021/08/17 11:27:41;;;;;;;9.27;6.27;;;;;;;;;;4545031;28;20415;-65
2021/08/17 11:29:56;;;;;;;8.18;5.43;;;;;;;;;;4541570;28;20736;-65
2021/08/17 11:32:09;;;;;;;8.75;5.75;;;;;;;;;;4538483;28;20072;-65
2021/08/17 11:34:25;;;;;;;9.23;6.18;;;;;;;;;;4542477;28;20120;-65
2021/08/17 11:36:36;;;;;;;8.82;6.05;;;;;;;;;;4540455;28;20127;-65
2021/08/17 11:38:46;;;;;;;8.90;6.20;;;;;;;;;;4542054;28;20045;-64
2021/08/17 11:40:56;;;;;;;8.33;5.63;;;;;;;;;;4543670;28;20064;-65
2021/08/17 11:43:07;;;;;;;8.80;6.03;;;;;;;;;;4540446;28;20037;-65
2021/08/17 11:45:23;;;;;;;10.00;6.00;;;;;;;;;;4544475;28;20033;-65
2021/08/17 11:47:34;;;;;;;9.35;6.15;;;;;;;;;;4543548;28;20037;-65
2021/08/17 11:49:46;;;;;;;8.57;5.77;;;;;;;;;;4543686;28;20024;-65
2021/08/17 11:52:02;;;;;;;9.77;6.05;;;;;;;;;;4528786;28;20256;-65
2021/08/17 11:54:14;;;;;;;8.60;5.65;;;;;;;;;;4540935;28;20044;-64
2021/08/17 11:56:25;;;;;;;9.57;5.82;;;;;;;;;;4541434;28;20069;-64
2021/08/17 11:58:35;;;;;;;9.10;6.10;;;;;;;;;;4539588;28;20112;-65
2021/08/17 12:00:47;;;;;;;9.17;5.23;;;;;;;;;;4540626;28;20139;-65
2021/08/17 12:03:00;;;;;;;9.02;5.78;;;;;;;;;;4540211;28;20512;-65
2021/08/17 12:05:16;;;;;;;8.55;5.57;;;;;;;;;;4543624;28;20116;-65
2021/08/17 12:07:28;;;;;;;8.43;5.32;;;;;;;;;;4539764;28;20087;-66
2021/08/17 12:09:41;;;;;;;8.52;5.70;;;;;;;;;;4538926;28;20037;-65
2021/08/17 12:11:58;;;;;;;8.93;5.20;;;;;;;;;;4539269;28;20033;-65
2021/08/17 12:14:09;;;;;;;8.65;5.28;;;;;;;;;;4542106;28;20106;-65
2021/08/17 12:16:19;;;;;;;8.73;5.40;;;;;;;;;;4543855;28;20087;-65
2021/08/17 12:18:33;;;;;;;7.83;4.90;;;;;;;;;;4544979;28;20052;-65
2021/08/17 12:20:55;;;;;;;8.05;5.20;;;;;;;;;;4542680;28;20041;-65
2021/08/17 12:23:25;;;;;;;8.48;4.97;;;;;;;;;;4542106;28;20032;-65
2021/08/17 12:25:35;;;;;;;9.10;5.13;;;;;;;;;;4541857;28;20731;-65
2021/08/17 12:27:52;;;;;;;7.53;4.97;;;;;;;;;;4540258;28;20087;-65
2021/08/17 12:30:07;;;;;;;8.10;4.93;;;;;;;;;;4542393;28;20144;-65
2021/08/17 12:32:25;;;;;;;8.55;5.00;;;;;;;;;;4521103;28;20037;-65
2021/08/17 12:34:42;;;;;;;8.02;4.90;;;;;;;;;;4542145;28;20123;-65
2021/08/17 12:36:52;;;;;;;8.02;4.97;;;;;;;;;;4542634;28;20033;-65
2021/08/17 12:39:21;;;;;;;7.67;4.70;;;;;;;;;;4541988;28;20629;-62
2021/08/17 12:41:33;;;;;;;7.38;4.80;;;;;;;;;;4542236;28;20583;-63
2021/08/17 12:43:44;;;;;;;8.27;5.15;;;;;;;;;;4544377;28;20037;-65
2021/08/17 12:45:54;;;;;;;8.73;4.33;;;;;;;;;;4543069;28;20045;-66
2021/08/17 12:48:05;;;;;;;7.77;4.30;;;;;;;;;;4540895;28;20048;-65
2021/08/17 12:50:16;;;;;;;8.07;4.68;;;;;;;;;;4540174;28;20040;-65
2021/08/17 12:52:39;;;;;;;7.23;4.27;;;;;;;;;;4538617;28;20048;-63
2021/08/17 12:54:51;;;;;;;8.10;4.65;;;;;;;;;;4539888;28;20662;-63
2021/08/17 12:57:01;;;;;;;8.27;4.25;;;;;;;;;;4537237;28;20068;-62
2021/08/17 12:59:12;;;;;;;6.50;4.00;;;;;;;;;;4541693;28;20029;-62
2021/08/17 13:01:22;;;;;;;6.80;4.07;;;;;;;;;;4541029;28;20029;-62
2021/08/17 13:03:33;;;;;;;5.97;3.70;;;;;;;;;;4541646;28;20117;-62
2021/08/17 13:05:44;;;;;;;5.80;3.77;;;;;;;;;;4537915;28;20033;-62
2021/08/17 13:07:55;;;;;;;6.72;4.43;;;;;;;;;;4542031;28;20032;-62
2021/08/17 13:10:08;;;;;;;6.53;3.93;;;;;;;;;;4537504;28;20036;-62